sensor_id;sensor_type;location;lat;lon;timestamp;P1;durP1;ratioP1;P2;durP2;ratioP2
36359;SDS011;22388;52.432;20.662;2024-01-30T00:00:13;51.38;;;25.35;;
36359;SDS011;22388;52.432;20.662;2024-01-30T00:03:37;46.42;;;25.33;;
36359;SDS011;22388;52.432;20.662;2024-01-30T00:07:01;47.00;;;24.73;;
36359;SDS011;22388;52.432;20.662;2024-01-30T00:10:25;47.38;;;24.17;;
36359;SDS011;22388;52.432;20.662;2024-01-30T00:13:53;50.72;;;27.48;;
36359;SDS011;22388;52.432;20.662;2024-01-30T00:17:17;46.63;;;24.42;;
36359;SDS011;22388;52.432;20.662;2024-01-30T00:20:42;46.65;;;25.10;;
36359;SDS011;22388;52.432;20.662;2024-01-30T00:24:06;45.83;;;22.95;;
36359;SDS011;22388;52.432;20.662;2024-01-30T00:27:30;47.45;;;23.33;;
36359;SDS011;22388;52.432;20.662;2024-01-30T00:30:54;43.85;;;23.10;;
36359;SDS011;22388;52.432;20.662;2024-01-30T00:34:18;41.53;;;24.27;;
36359;SDS011;22388;52.432;20.662;2024-01-30T00:37:42;43.05;;;23.75;;
36359;SDS011;22388;52.432;20.662;2024-01-30T00:41:07;46.42;;;23.05;;
36359;SDS011;22388;52.432;20.662;2024-01-30T00:44:34;52.25;;;23.48;;
36359;SDS011;22388;52.432;20.662;2024-01-30T00:47:58;45.03;;;24.38;;
36359;SDS011;22388;52.432;20.662;2024-01-30T00:51:23;50.50;;;25.60;;
36359;SDS011;22388;52.432;20.662;2024-01-30T00:54:47;41.50;;;23.80;;
36359;SDS011;22388;52.432;20.662;2024-01-30T00:58:11;49.92;;;23.80;;
36359;SDS011;22388;52.432;20.662;2024-01-30T01:01:36;43.05;;;24.42;;
36359;SDS011;22388;52.432;20.662;2024-01-30T01:05:01;45.15;;;23.70;;
36359;SDS011;22388;52.432;20.662;2024-01-30T01:08:25;43.45;;;24.00;;
36359;SDS011;22388;52.432;20.662;2024-01-30T01:11:49;48.63;;;25.85;;
36359;SDS011;22388;52.432;20.662;2024-01-30T01:15:13;46.78;;;24.13;;
36359;SDS011;22388;52.432;20.662;2024-01-30T01:18:37;45.25;;;24.35;;
36359;SDS011;22388;52.432;20.662;2024-01-30T01:22:01;47.47;;;24.85;;
36359;SDS011;22388;52.432;20.662;2024-01-30T01:25:25;48.15;;;26.58;;
36359;SDS011;22388;52.432;20.662;2024-01-30T01:28:50;47.28;;;25.60;;
36359;SDS011;22388;52.432;20.662;2024-01-30T01:32:14;48.78;;;24.75;;
36359;SDS011;22388;52.432;20.662;2024-01-30T01:35:39;46.80;;;25.70;;
36359;SDS011;22388;52.432;20.662;2024-01-30T01:39:03;47.97;;;25.58;;
36359;SDS011;22388;52.432;20.662;2024-01-30T01:42:28;52.55;;;26.35;;
36359;SDS011;22388;52.432;20.662;2024-01-30T01:45:52;49.83;;;26.08;;
36359;SDS011;22388;52.432;20.662;2024-01-30T01:49:16;51.47;;;26.15;;
36359;SDS011;22388;52.432;20.662;2024-01-30T01:52:43;46.20;;;24.33;;
36359;SDS011;22388;52.432;20.662;2024-01-30T01:56:08;49.05;;;25.08;;
36359;SDS011;22388;52.432;20.662;2024-01-30T01:59:32;48.60;;;25.92;;
36359;SDS011;22388;52.432;20.662;2024-01-30T02:02:56;49.90;;;25.75;;
36359;SDS011;22388;52.432;20.662;2024-01-30T02:06:21;51.42;;;25.63;;
36359;SDS011;22388;52.432;20.662;2024-01-30T02:09:45;49.55;;;25.25;;
36359;SDS011;22388;52.432;20.662;2024-01-30T02:13:09;46.53;;;24.25;;
36359;SDS011;22388;52.432;20.662;2024-01-30T02:16:33;48.25;;;24.05;;
36359;SDS011;22388;52.432;20.662;2024-01-30T02:19:57;44.53;;;22.58;;
36359;SDS011;22388;52.432;20.662;2024-01-30T02:23:23;40.65;;;22.67;;
36359;SDS011;22388;52.432;20.662;2024-01-30T02:26:47;42.88;;;22.30;;
36359;SDS011;22388;52.432;20.662;2024-01-30T02:30:12;43.55;;;22.65;;
36359;SDS011;22388;52.432;20.662;2024-01-30T02:33:36;45.15;;;22.08;;
36359;SDS011;22388;52.432;20.662;2024-01-30T02:37:00;44.70;;;23.00;;
36359;SDS011;22388;52.432;20.662;2024-01-30T02:40:25;40.13;;;22.13;;
36359;SDS011;22388;52.432;20.662;2024-01-30T02:43:49;46.55;;;23.08;;
36359;SDS011;22388;52.432;20.662;2024-01-30T02:47:13;44.22;;;23.70;;
36359;SDS011;22388;52.432;20.662;2024-01-30T02:50:37;50.05;;;24.35;;
36359;SDS011;22388;52.432;20.662;2024-01-30T02:54:01;48.58;;;23.58;;
36359;SDS011;22388;52.432;20.662;2024-01-30T02:57:26;47.95;;;25.10;;
36359;SDS011;22388;52.432;20.662;2024-01-30T03:00:50;48.35;;;24.65;;
36359;SDS011;22388;52.432;20.662;2024-01-30T03:04:14;47.05;;;24.60;;
36359;SDS011;22388;52.432;20.662;2024-01-30T03:07:38;47.67;;;24.45;;
36359;SDS011;22388;52.432;20.662;2024-01-30T03:11:02;45.47;;;23.27;;
36359;SDS011;22388;52.432;20.662;2024-01-30T03:14:27;45.65;;;23.83;;
36359;SDS011;22388;52.432;20.662;2024-01-30T03:17:51;45.10;;;22.35;;
36359;SDS011;22388;52.432;20.662;2024-01-30T03:21:15;41.40;;;22.65;;
36359;SDS011;22388;52.432;20.662;2024-01-30T03:24:39;46.55;;;24.85;;
36359;SDS011;22388;52.432;20.662;2024-01-30T03:28:03;42.55;;;22.83;;
36359;SDS011;22388;52.432;20.662;2024-01-30T03:31:28;41.72;;;22.25;;
36359;SDS011;22388;52.432;20.662;2024-01-30T03:34:52;45.40;;;22.90;;
36359;SDS011;22388;52.432;20.662;2024-01-30T03:38:16;45.35;;;23.80;;
36359;SDS011;22388;52.432;20.662;2024-01-30T03:41:42;47.33;;;24.15;;
36359;SDS011;22388;52.432;20.662;2024-01-30T03:45:06;47.38;;;23.75;;
36359;SDS011;22388;52.432;20.662;2024-01-30T03:48:30;43.95;;;23.27;;
36359;SDS011;22388;52.432;20.662;2024-01-30T03:51:55;39.42;;;22.40;;
36359;SDS011;22388;52.432;20.662;2024-01-30T03:55:19;44.28;;;23.13;;
36359;SDS011;22388;52.432;20.662;2024-01-30T03:58:43;43.40;;;22.10;;
36359;SDS011;22388;52.432;20.662;2024-01-30T04:02:07;44.58;;;22.10;;
36359;SDS011;22388;52.432;20.662;2024-01-30T04:05:32;45.83;;;22.98;;
36359;SDS011;22388;52.432;20.662;2024-01-30T04:08:56;44.95;;;23.92;;
36359;SDS011;22388;52.432;20.662;2024-01-30T04:12:20;48.80;;;25.05;;
36359;SDS011;22388;52.432;20.662;2024-01-30T04:15:44;48.47;;;23.77;;
36359;SDS011;22388;52.432;20.662;2024-01-30T04:19:09;41.60;;;22.02;;
36359;SDS011;22388;52.432;20.662;2024-01-30T04:22:42;42.33;;;22.83;;
36359;SDS011;22388;52.432;20.662;2024-01-30T04:26:09;40.65;;;22.63;;
36359;SDS011;22388;52.432;20.662;2024-01-30T04:29:34;47.05;;;22.65;;
36359;SDS011;22388;52.432;20.662;2024-01-30T04:32:58;43.20;;;22.27;;
36359;SDS011;22388;52.432;20.662;2024-01-30T04:36:23;40.75;;;22.80;;
36359;SDS011;22388;52.432;20.662;2024-01-30T04:39:46;43.53;;;22.80;;
36359;SDS011;22388;52.432;20.662;2024-01-30T04:43:11;44.95;;;23.58;;
36359;SDS011;22388;52.432;20.662;2024-01-30T04:46:35;40.72;;;21.15;;
36359;SDS011;22388;52.432;20.662;2024-01-30T04:49:59;41.28;;;20.98;;
36359;SDS011;22388;52.432;20.662;2024-01-30T04:53:23;43.40;;;22.48;;
36359;SDS011;22388;52.432;20.662;2024-01-30T04:56:47;44.83;;;22.52;;
36359;SDS011;22388;52.432;20.662;2024-01-30T05:00:12;41.90;;;21.58;;
36359;SDS011;22388;52.432;20.662;2024-01-30T05:03:39;45.55;;;23.25;;
36359;SDS011;22388;52.432;20.662;2024-01-30T05:07:04;47.55;;;22.85;;
36359;SDS011;22388;52.432;20.662;2024-01-30T05:10:28;42.67;;;21.95;;
36359;SDS011;22388;52.432;20.662;2024-01-30T05:13:52;43.33;;;22.63;;
36359;SDS011;22388;52.432;20.662;2024-01-30T05:17:16;42.35;;;21.58;;
36359;SDS011;22388;52.432;20.662;2024-01-30T05:20:40;48.75;;;23.52;;
36359;SDS011;22388;52.432;20.662;2024-01-30T05:24:04;42.50;;;22.45;;
36359;SDS011;22388;52.432;20.662;2024-01-30T05:27:29;48.33;;;24.80;;
36359;SDS011;22388;52.432;20.662;2024-01-30T05:30:56;44.47;;;22.50;;
36359;SDS011;22388;52.432;20.662;2024-01-30T05:34:20;41.42;;;22.05;;
36359;SDS011;22388;52.432;20.662;2024-01-30T05:37:47;40.95;;;22.80;;
36359;SDS011;22388;52.432;20.662;2024-01-30T05:41:11;39.78;;;21.65;;
36359;SDS011;22388;52.432;20.662;2024-01-30T05:44:36;43.38;;;22.35;;
36359;SDS011;22388;52.432;20.662;2024-01-30T05:48:01;40.05;;;21.02;;
36359;SDS011;22388;52.432;20.662;2024-01-30T05:51:25;41.97;;;21.08;;
36359;SDS011;22388;52.432;20.662;2024-01-30T05:54:49;42.45;;;20.90;;
36359;SDS011;22388;52.432;20.662;2024-01-30T05:58:13;41.80;;;20.75;;
36359;SDS011;22388;52.432;20.662;2024-01-30T06:01:37;43.10;;;20.35;;
36359;SDS011;22388;52.432;20.662;2024-01-30T06:05:02;46.85;;;24.27;;
36359;SDS011;22388;52.432;20.662;2024-01-30T06:08:26;39.33;;;19.67;;
36359;SDS011;22388;52.432;20.662;2024-01-30T06:11:50;42.53;;;20.92;;
36359;SDS011;22388;52.432;20.662;2024-01-30T06:15:14;41.20;;;20.10;;
36359;SDS011;22388;52.432;20.662;2024-01-30T06:18:38;43.85;;;20.25;;
36359;SDS011;22388;52.432;20.662;2024-01-30T06:22:05;41.17;;;19.90;;
36359;SDS011;22388;52.432;20.662;2024-01-30T06:25:30;40.97;;;21.45;;
36359;SDS011;22388;52.432;20.662;2024-01-30T06:28:54;44.75;;;20.10;;
36359;SDS011;22388;52.432;20.662;2024-01-30T06:32:18;40.97;;;21.10;;
36359;SDS011;22388;52.432;20.662;2024-01-30T06:35:42;39.05;;;20.20;;
36359;SDS011;22388;52.432;20.662;2024-01-30T06:39:06;46.13;;;22.60;;
36359;SDS011;22388;52.432;20.662;2024-01-30T06:42:30;41.55;;;21.25;;
36359;SDS011;22388;52.432;20.662;2024-01-30T06:45:54;41.97;;;21.52;;
36359;SDS011;22388;52.432;20.662;2024-01-30T06:49:19;41.55;;;22.00;;
36359;SDS011;22388;52.432;20.662;2024-01-30T06:52:43;43.00;;;20.25;;
36359;SDS011;22388;52.432;20.662;2024-01-30T06:56:07;44.03;;;23.10;;
36359;SDS011;22388;52.432;20.662;2024-01-30T06:59:36;45.42;;;22.30;;
36359;SDS011;22388;52.432;20.662;2024-01-30T07:03:01;40.35;;;22.02;;
36359;SDS011;22388;52.432;20.662;2024-01-30T07:06:25;44.53;;;23.27;;
36359;SDS011;22388;52.432;20.662;2024-01-30T07:09:49;44.38;;;23.70;;
36359;SDS011;22388;52.432;20.662;2024-01-30T07:13:13;44.75;;;21.83;;
36359;SDS011;22388;52.432;20.662;2024-01-30T07:16:37;42.15;;;22.75;;
36359;SDS011;22388;52.432;20.662;2024-01-30T07:20:02;42.60;;;20.40;;
36359;SDS011;22388;52.432;20.662;2024-01-30T07:23:26;46.05;;;23.17;;
36359;SDS011;22388;52.432;20.662;2024-01-30T07:26:50;51.08;;;22.50;;
36359;SDS011;22388;52.432;20.662;2024-01-30T07:30:14;49.15;;;22.20;;
36359;SDS011;22388;52.432;20.662;2024-01-30T07:33:38;46.03;;;22.90;;
36359;SDS011;22388;52.432;20.662;2024-01-30T07:37:03;45.15;;;22.13;;
36359;SDS011;22388;52.432;20.662;2024-01-30T07:40:27;49.92;;;23.75;;
36359;SDS011;22388;52.432;20.662;2024-01-30T07:43:51;45.42;;;23.25;;
36359;SDS011;22388;52.432;20.662;2024-01-30T07:47:15;47.92;;;24.42;;
36359;SDS011;22388;52.432;20.662;2024-01-30T07:50:40;48.47;;;23.38;;
36359;SDS011;22388;52.432;20.662;2024-01-30T07:54:05;45.95;;;23.27;;
36359;SDS011;22388;52.432;20.662;2024-01-30T07:57:29;48.80;;;22.52;;
36359;SDS011;22388;52.432;20.662;2024-01-30T08:00:53;47.60;;;22.83;;
36359;SDS011;22388;52.432;20.662;2024-01-30T08:04:17;46.10;;;22.23;;
36359;SDS011;22388;52.432;20.662;2024-01-30T08:07:41;42.40;;;21.05;;
36359;SDS011;22388;52.432;20.662;2024-01-30T08:11:05;41.70;;;20.10;;
36359;SDS011;22388;52.432;20.662;2024-01-30T08:14:30;37.85;;;20.10;;
36359;SDS011;22388;52.432;20.662;2024-01-30T08:17:54;37.47;;;18.63;;
36359;SDS011;22388;52.432;20.662;2024-01-30T08:21:20;37.80;;;18.30;;
36359;SDS011;22388;52.432;20.662;2024-01-30T08:24:44;38.38;;;18.25;;
36359;SDS011;22388;52.432;20.662;2024-01-30T08:28:08;35.90;;;18.13;;
36359;SDS011;22388;52.432;20.662;2024-01-30T08:31:33;36.28;;;17.40;;
36359;SDS011;22388;52.432;20.662;2024-01-30T08:34:57;30.35;;;16.88;;
36359;SDS011;22388;52.432;20.662;2024-01-30T08:38:21;38.55;;;15.80;;
36359;SDS011;22388;52.432;20.662;2024-01-30T08:41:45;36.28;;;14.45;;
36359;SDS011;22388;52.432;20.662;2024-01-30T08:45:09;24.83;;;13.20;;
36359;SDS011;22388;52.432;20.662;2024-01-30T08:48:35;29.25;;;13.68;;
36359;SDS011;22388;52.432;20.662;2024-01-30T08:52:12;27.38;;;13.25;;
36359;SDS011;22388;52.432;20.662;2024-01-30T08:55:36;27.33;;;12.43;;
36359;SDS011;22388;52.432;20.662;2024-01-30T08:59:00;30.67;;;13.20;;
36359;SDS011;22388;52.432;20.662;2024-01-30T09:02:25;26.27;;;12.43;;
36359;SDS011;22388;52.432;20.662;2024-01-30T09:05:49;23.83;;;11.93;;
36359;SDS011;22388;52.432;20.662;2024-01-30T09:09:14;26.75;;;12.13;;
36359;SDS011;22388;52.432;20.662;2024-01-30T09:12:38;26.40;;;12.82;;
36359;SDS011;22388;52.432;20.662;2024-01-30T09:16:02;24.13;;;11.90;;
36359;SDS011;22388;52.432;20.662;2024-01-30T09:19:28;24.38;;;12.15;;
36359;SDS011;22388;52.432;20.662;2024-01-30T09:22:52;25.95;;;11.82;;
36359;SDS011;22388;52.432;20.662;2024-01-30T09:26:19;24.95;;;12.32;;
36359;SDS011;22388;52.432;20.662;2024-01-30T09:29:43;22.33;;;11.52;;
36359;SDS011;22388;52.432;20.662;2024-01-30T09:33:07;23.33;;;11.27;;
36359;SDS011;22388;52.432;20.662;2024-01-30T09:36:31;23.65;;;10.38;;
36359;SDS011;22388;52.432;20.662;2024-01-30T09:39:55;21.80;;;10.70;;
36359;SDS011;22388;52.432;20.662;2024-01-30T09:43:23;22.17;;;10.45;;
36359;SDS011;22388;52.432;20.662;2024-01-30T09:46:47;18.00;;;10.23;;
36359;SDS011;22388;52.432;20.662;2024-01-30T09:50:12;22.20;;;10.48;;
36359;SDS011;22388;52.432;20.662;2024-01-30T09:53:37;25.30;;;10.43;;
36359;SDS011;22388;52.432;20.662;2024-01-30T09:57:05;23.52;;;10.73;;
36359;SDS011;22388;52.432;20.662;2024-01-30T10:00:30;22.08;;;10.45;;
36359;SDS011;22388;52.432;20.662;2024-01-30T10:03:55;19.38;;;10.18;;
36359;SDS011;22388;52.432;20.662;2024-01-30T10:07:19;23.10;;;11.10;;
36359;SDS011;22388;52.432;20.662;2024-01-30T10:10:47;21.92;;;11.15;;
36359;SDS011;22388;52.432;20.662;2024-01-30T10:14:11;22.40;;;9.95;;
36359;SDS011;22388;52.432;20.662;2024-01-30T10:17:37;23.05;;;10.80;;
36359;SDS011;22388;52.432;20.662;2024-01-30T10:21:01;22.33;;;10.18;;
36359;SDS011;22388;52.432;20.662;2024-01-30T10:24:25;21.92;;;9.52;;
36359;SDS011;22388;52.432;20.662;2024-01-30T10:27:53;21.13;;;9.82;;
36359;SDS011;22388;52.432;20.662;2024-01-30T10:31:18;18.08;;;8.98;;
36359;SDS011;22388;52.432;20.662;2024-01-30T10:34:42;17.95;;;9.20;;
36359;SDS011;22388;52.432;20.662;2024-01-30T10:38:07;17.75;;;8.48;;
36359;SDS011;22388;52.432;20.662;2024-01-30T10:41:43;18.58;;;9.27;;
36359;SDS011;22388;52.432;20.662;2024-01-30T10:45:09;21.55;;;9.13;;
36359;SDS011;22388;52.432;20.662;2024-01-30T10:48:33;15.23;;;8.27;;
36359;SDS011;22388;52.432;20.662;2024-01-30T10:52:00;19.80;;;8.55;;
36359;SDS011;22388;52.432;20.662;2024-01-30T10:55:25;20.05;;;8.50;;
36359;SDS011;22388;52.432;20.662;2024-01-30T10:58:51;21.20;;;9.18;;
36359;SDS011;22388;52.432;20.662;2024-01-30T11:02:16;19.13;;;9.07;;
36359;SDS011;22388;52.432;20.662;2024-01-30T11:05:42;18.17;;;8.98;;
36359;SDS011;22388;52.432;20.662;2024-01-30T11:09:10;19.65;;;8.20;;
36359;SDS011;22388;52.432;20.662;2024-01-30T11:12:38;22.80;;;9.10;;
36359;SDS011;22388;52.432;20.662;2024-01-30T11:16:05;18.63;;;8.57;;
36359;SDS011;22388;52.432;20.662;2024-01-30T11:19:30;20.10;;;9.50;;
36359;SDS011;22388;52.432;20.662;2024-01-30T11:23:01;17.80;;;8.25;;
36359;SDS011;22388;52.432;20.662;2024-01-30T11:26:28;21.40;;;8.45;;
36359;SDS011;22388;52.432;20.662;2024-01-30T11:29:52;18.90;;;8.63;;
36359;SDS011;22388;52.432;20.662;2024-01-30T11:33:28;21.52;;;8.55;;
36359;SDS011;22388;52.432;20.662;2024-01-30T11:36:55;21.27;;;8.25;;
36359;SDS011;22388;52.432;20.662;2024-01-30T11:40:19;18.38;;;8.65;;
36359;SDS011;22388;52.432;20.662;2024-01-30T11:43:52;16.15;;;8.05;;
36359;SDS011;22388;52.432;20.662;2024-01-30T11:47:16;23.00;;;8.75;;
36359;SDS011;22388;52.432;20.662;2024-01-30T11:50:40;19.17;;;8.15;;
36359;SDS011;22388;52.432;20.662;2024-01-30T11:54:04;17.00;;;8.43;;
36359;SDS011;22388;52.432;20.662;2024-01-30T11:57:29;19.17;;;9.27;;
36359;SDS011;22388;52.432;20.662;2024-01-30T12:00:54;20.00;;;8.75;;
36359;SDS011;22388;52.432;20.662;2024-01-30T12:04:18;18.20;;;8.93;;
36359;SDS011;22388;52.432;20.662;2024-01-30T12:07:44;18.13;;;8.80;;
36359;SDS011;22388;52.432;20.662;2024-01-30T12:11:09;22.80;;;9.27;;
36359;SDS011;22388;52.432;20.662;2024-01-30T12:14:39;20.63;;;9.38;;
36359;SDS011;22388;52.432;20.662;2024-01-30T12:18:04;19.70;;;9.60;;
36359;SDS011;22388;52.432;20.662;2024-01-30T12:21:29;18.73;;;8.85;;
36359;SDS011;22388;52.432;20.662;2024-01-30T12:24:53;20.85;;;9.40;;
36359;SDS011;22388;52.432;20.662;2024-01-30T12:28:17;18.45;;;9.48;;
36359;SDS011;22388;52.432;20.662;2024-01-30T12:31:42;19.77;;;9.55;;
36359;SDS011;22388;52.432;20.662;2024-01-30T12:35:10;20.73;;;8.95;;
36359;SDS011;22388;52.432;20.662;2024-01-30T12:38:34;18.83;;;9.45;;
36359;SDS011;22388;52.432;20.662;2024-01-30T12:41:58;17.63;;;9.38;;
36359;SDS011;22388;52.432;20.662;2024-01-30T12:45:23;21.13;;;9.98;;
36359;SDS011;22388;52.432;20.662;2024-01-30T12:48:50;18.55;;;9.68;;
36359;SDS011;22388;52.432;20.662;2024-01-30T12:52:16;20.90;;;9.40;;
36359;SDS011;22388;52.432;20.662;2024-01-30T12:55:40;22.55;;;9.80;;
36359;SDS011;22388;52.432;20.662;2024-01-30T12:59:04;19.83;;;9.32;;
36359;SDS011;22388;52.432;20.662;2024-01-30T13:02:28;20.88;;;9.88;;
36359;SDS011;22388;52.432;20.662;2024-01-30T13:06:03;17.17;;;8.95;;
36359;SDS011;22388;52.432;20.662;2024-01-30T13:09:29;20.70;;;8.88;;
36359;SDS011;22388;52.432;20.662;2024-01-30T13:12:53;17.92;;;9.13;;
36359;SDS011;22388;52.432;20.662;2024-01-30T13:16:17;20.55;;;9.18;;
36359;SDS011;22388;52.432;20.662;2024-01-30T13:19:41;20.38;;;8.48;;
36359;SDS011;22388;52.432;20.662;2024-01-30T13:23:05;19.45;;;8.90;;
36359;SDS011;22388;52.432;20.662;2024-01-30T13:26:31;17.30;;;8.52;;
36359;SDS011;22388;52.432;20.662;2024-01-30T13:29:56;18.70;;;9.25;;
36359;SDS011;22388;52.432;20.662;2024-01-30T13:33:20;19.38;;;9.30;;
36359;SDS011;22388;52.432;20.662;2024-01-30T13:36:44;19.40;;;9.32;;
36359;SDS011;22388;52.432;20.662;2024-01-30T13:40:08;17.55;;;9.32;;
36359;SDS011;22388;52.432;20.662;2024-01-30T13:43:33;19.52;;;8.98;;
36359;SDS011;22388;52.432;20.662;2024-01-30T13:46:57;22.20;;;8.95;;
36359;SDS011;22388;52.432;20.662;2024-01-30T13:50:21;20.77;;;8.88;;
36359;SDS011;22388;52.432;20.662;2024-01-30T13:53:45;21.10;;;9.90;;
36359;SDS011;22388;52.432;20.662;2024-01-30T13:57:09;21.30;;;10.07;;
36359;SDS011;22388;52.432;20.662;2024-01-30T14:00:34;21.98;;;10.88;;
36359;SDS011;22388;52.432;20.662;2024-01-30T14:03:58;20.80;;;11.48;;
36359;SDS011;22388;52.432;20.662;2024-01-30T14:07:22;20.23;;;11.05;;
36359;SDS011;22388;52.432;20.662;2024-01-30T14:10:49;22.40;;;10.13;;
36359;SDS011;22388;52.432;20.662;2024-01-30T14:14:13;25.10;;;10.50;;
36359;SDS011;22388;52.432;20.662;2024-01-30T14:17:38;21.52;;;10.45;;
36359;SDS011;22388;52.432;20.662;2024-01-30T14:21:02;21.42;;;10.25;;
36359;SDS011;22388;52.432;20.662;2024-01-30T14:24:27;21.75;;;10.60;;
36359;SDS011;22388;52.432;20.662;2024-01-30T14:27:51;24.08;;;11.25;;
36359;SDS011;22388;52.432;20.662;2024-01-30T14:31:15;22.58;;;10.88;;
36359;SDS011;22388;52.432;20.662;2024-01-30T14:34:39;25.73;;;11.65;;
36359;SDS011;22388;52.432;20.662;2024-01-30T14:38:03;25.17;;;11.90;;
36359;SDS011;22388;52.432;20.662;2024-01-30T14:41:28;22.45;;;11.27;;
36359;SDS011;22388;52.432;20.662;2024-01-30T14:44:56;27.33;;;11.52;;
36359;SDS011;22388;52.432;20.662;2024-01-30T14:48:20;24.80;;;12.30;;
36359;SDS011;22388;52.432;20.662;2024-01-30T14:51:45;21.08;;;11.52;;
36359;SDS011;22388;52.432;20.662;2024-01-30T14:55:09;25.85;;;11.23;;
36359;SDS011;22388;52.432;20.662;2024-01-30T14:58:34;28.90;;;12.48;;
36359;SDS011;22388;52.432;20.662;2024-01-30T15:01:59;27.17;;;12.30;;
36359;SDS011;22388;52.432;20.662;2024-01-30T15:05:23;29.00;;;12.68;;
36359;SDS011;22388;52.432;20.662;2024-01-30T15:08:49;26.77;;;12.30;;
36359;SDS011;22388;52.432;20.662;2024-01-30T15:12:13;24.00;;;12.07;;
36359;SDS011;22388;52.432;20.662;2024-01-30T15:15:37;24.40;;;12.10;;
36359;SDS011;22388;52.432;20.662;2024-01-30T15:19:02;21.27;;;10.90;;
36359;SDS011;22388;52.432;20.662;2024-01-30T15:22:26;27.17;;;11.82;;
36359;SDS011;22388;52.432;20.662;2024-01-30T15:25:50;25.83;;;12.13;;
36359;SDS011;22388;52.432;20.662;2024-01-30T15:29:15;23.65;;;12.05;;
36359;SDS011;22388;52.432;20.662;2024-01-30T15:32:39;24.80;;;10.77;;
36359;SDS011;22388;52.432;20.662;2024-01-30T15:36:08;25.48;;;12.52;;
36359;SDS011;22388;52.432;20.662;2024-01-30T15:39:32;23.58;;;11.55;;
36359;SDS011;22388;52.432;20.662;2024-01-30T15:42:57;24.42;;;11.38;;
36359;SDS011;22388;52.432;20.662;2024-01-30T15:46:21;24.92;;;11.07;;
36359;SDS011;22388;52.432;20.662;2024-01-30T15:49:46;23.02;;;11.13;;
36359;SDS011;22388;52.432;20.662;2024-01-30T15:53:10;22.80;;;11.18;;
36359;SDS011;22388;52.432;20.662;2024-01-30T15:56:34;22.90;;;11.38;;
36359;SDS011;22388;52.432;20.662;2024-01-30T15:59:59;26.25;;;11.50;;
36359;SDS011;22388;52.432;20.662;2024-01-30T16:03:23;20.52;;;10.60;;
36359;SDS011;22388;52.432;20.662;2024-01-30T16:06:48;21.92;;;11.90;;
36359;SDS011;22388;52.432;20.662;2024-01-30T16:10:13;25.63;;;11.70;;
36359;SDS011;22388;52.432;20.662;2024-01-30T16:13:38;23.40;;;11.25;;
36359;SDS011;22388;52.432;20.662;2024-01-30T16:17:02;24.52;;;11.48;;
36359;SDS011;22388;52.432;20.662;2024-01-30T16:20:26;21.92;;;11.00;;
36359;SDS011;22388;52.432;20.662;2024-01-30T16:23:50;20.80;;;10.68;;
36359;SDS011;22388;52.432;20.662;2024-01-30T16:27:14;22.17;;;11.43;;
36359;SDS011;22388;52.432;20.662;2024-01-30T16:30:38;24.48;;;11.60;;
36359;SDS011;22388;52.432;20.662;2024-01-30T16:34:02;27.98;;;11.63;;
36359;SDS011;22388;52.432;20.662;2024-01-30T16:37:26;23.08;;;11.63;;
36359;SDS011;22388;52.432;20.662;2024-01-30T16:40:50;25.25;;;12.23;;
36359;SDS011;22388;52.432;20.662;2024-01-30T16:44:15;22.58;;;11.00;;
36359;SDS011;22388;52.432;20.662;2024-01-30T16:47:39;22.30;;;11.30;;
36359;SDS011;22388;52.432;20.662;2024-01-30T16:51:06;28.33;;;12.30;;
36359;SDS011;22388;52.432;20.662;2024-01-30T16:54:30;26.35;;;12.45;;
36359;SDS011;22388;52.432;20.662;2024-01-30T16:57:54;25.73;;;11.52;;
36359;SDS011;22388;52.432;20.662;2024-01-30T17:01:18;23.90;;;11.40;;
36359;SDS011;22388;52.432;20.662;2024-01-30T17:04:42;20.55;;;11.90;;
36359;SDS011;22388;52.432;20.662;2024-01-30T17:08:06;24.15;;;12.20;;
36359;SDS011;22388;52.432;20.662;2024-01-30T17:11:30;26.92;;;12.73;;
36359;SDS011;22388;52.432;20.662;2024-01-30T17:14:56;28.92;;;14.07;;
36359;SDS011;22388;52.432;20.662;2024-01-30T17:18:22;28.23;;;13.65;;
36359;SDS011;22388;52.432;20.662;2024-01-30T17:21:46;27.83;;;13.85;;
36359;SDS011;22388;52.432;20.662;2024-01-30T17:25:11;30.63;;;13.60;;
36359;SDS011;22388;52.432;20.662;2024-01-30T17:28:35;34.22;;;14.20;;
36359;SDS011;22388;52.432;20.662;2024-01-30T17:32:00;31.50;;;13.65;;
36359;SDS011;22388;52.432;20.662;2024-01-30T17:35:25;32.83;;;15.38;;
36359;SDS011;22388;52.432;20.662;2024-01-30T17:38:50;30.45;;;14.07;;
36359;SDS011;22388;52.432;20.662;2024-01-30T17:42:14;28.42;;;13.38;;
36359;SDS011;22388;52.432;20.662;2024-01-30T17:45:39;30.80;;;14.35;;
36359;SDS011;22388;52.432;20.662;2024-01-30T17:49:03;28.98;;;14.07;;
36359;SDS011;22388;52.432;20.662;2024-01-30T17:52:27;31.13;;;14.43;;
36359;SDS011;22388;52.432;20.662;2024-01-30T17:55:52;29.15;;;15.55;;
36359;SDS011;22388;52.432;20.662;2024-01-30T17:59:17;28.08;;;15.63;;
36359;SDS011;22388;52.432;20.662;2024-01-30T18:02:42;32.20;;;15.70;;
36359;SDS011;22388;52.432;20.662;2024-01-30T18:06:06;32.88;;;16.15;;
36359;SDS011;22388;52.432;20.662;2024-01-30T18:09:30;31.23;;;16.10;;
36359;SDS011;22388;52.432;20.662;2024-01-30T18:12:55;32.20;;;17.10;;
36359;SDS011;22388;52.432;20.662;2024-01-30T18:16:21;33.55;;;16.63;;
36359;SDS011;22388;52.432;20.662;2024-01-30T18:19:45;38.85;;;16.88;;
36359;SDS011;22388;52.432;20.662;2024-01-30T18:23:09;31.52;;;15.88;;
36359;SDS011;22388;52.432;20.662;2024-01-30T18:26:33;33.97;;;16.10;;
36359;SDS011;22388;52.432;20.662;2024-01-30T18:29:57;36.60;;;16.42;;
36359;SDS011;22388;52.432;20.662;2024-01-30T18:33:21;29.98;;;15.93;;
36359;SDS011;22388;52.432;20.662;2024-01-30T18:36:46;34.60;;;16.60;;
36359;SDS011;22388;52.432;20.662;2024-01-30T18:40:10;35.97;;;16.48;;
36359;SDS011;22388;52.432;20.662;2024-01-30T18:43:34;35.08;;;16.98;;
36359;SDS011;22388;52.432;20.662;2024-01-30T18:46:58;31.20;;;15.25;;
36359;SDS011;22388;52.432;20.662;2024-01-30T18:50:22;34.00;;;16.45;;
36359;SDS011;22388;52.432;20.662;2024-01-30T18:53:46;33.30;;;16.20;;
36359;SDS011;22388;52.432;20.662;2024-01-30T18:57:10;35.47;;;16.77;;
36359;SDS011;22388;52.432;20.662;2024-01-30T19:00:34;34.17;;;17.27;;
36359;SDS011;22388;52.432;20.662;2024-01-30T19:03:59;31.27;;;16.08;;
36359;SDS011;22388;52.432;20.662;2024-01-30T19:07:24;34.28;;;15.70;;
36359;SDS011;22388;52.432;20.662;2024-01-30T19:10:48;33.10;;;15.93;;
36359;SDS011;22388;52.432;20.662;2024-01-30T19:14:12;29.33;;;15.43;;
36359;SDS011;22388;52.432;20.662;2024-01-30T19:17:39;37.17;;;18.00;;
36359;SDS011;22388;52.432;20.662;2024-01-30T19:21:03;36.75;;;16.33;;
36359;SDS011;22388;52.432;20.662;2024-01-30T19:24:28;32.38;;;15.57;;
36359;SDS011;22388;52.432;20.662;2024-01-30T19:27:53;35.35;;;17.15;;
36359;SDS011;22388;52.432;20.662;2024-01-30T19:31:17;34.63;;;16.05;;
36359;SDS011;22388;52.432;20.662;2024-01-30T19:34:42;32.28;;;17.13;;
36359;SDS011;22388;52.432;20.662;2024-01-30T19:38:06;34.30;;;17.67;;
36359;SDS011;22388;52.432;20.662;2024-01-30T19:41:36;42.13;;;19.58;;